sensor_id;sensor_type;location;lat;lon;timestamp;pressure;altitude;pressure_sealevel;temperature;humidity
43553;BME280;29153;42.696;23.218;2023-01-30T00:01:06;94754.25;;;-0.62;89.65
43553;BME280;29153;42.696;23.218;2023-01-30T00:03:35;94754.16;;;-0.65;89.29
43553;BME280;29153;42.696;23.218;2023-01-30T00:06:03;94749.95;;;-0.66;89.34
43553;BME280;29153;42.696;23.218;2023-01-30T00:08:30;94743.16;;;-0.60;88.98
43553;BME280;29153;42.696;23.218;2023-01-30T00:11:05;94743.66;;;-0.48;88.38
43553;BME280;29153;42.696;23.218;2023-01-30T00:13:33;94740.13;;;-0.51;88.14
43553;BME280;29153;42.696;23.218;2023-01-30T00:16:01;94743.06;;;-0.56;88.38
43553;BME280;29153;42.696;23.218;2023-01-30T00:18:29;94736.44;;;-0.59;88.28
43553;BME280;29153;42.696;23.218;2023-01-30T00:20:58;94737.25;;;-0.65;88.80
43553;BME280;29153;42.696;23.218;2023-01-30T00:23:27;94740.45;;;-0.50;88.72
43553;BME280;29153;42.696;23.218;2023-01-30T00:25:55;94740.53;;;-0.47;88.77
43553;BME280;29153;42.696;23.218;2023-01-30T00:28:23;94744.36;;;-0.56;88.97
43553;BME280;29153;42.696;23.218;2023-01-30T00:30:51;94736.45;;;-0.52;88.25
43553;BME280;29153;42.696;23.218;2023-01-30T00:33:21;94740.45;;;-0.56;88.11
43553;BME280;29153;42.696;23.218;2023-01-30T00:35:50;94741.34;;;-0.47;87.81
43553;BME280;29153;42.696;23.218;2023-01-30T00:38:18;94740.15;;;-0.57;87.69
43553;BME280;29153;42.696;23.218;2023-01-30T00:40:46;94736.95;;;-0.53;87.17
43553;BME280;29153;42.696;23.218;2023-01-30T00:43:16;94735.55;;;-0.62;86.72
43553;BME280;29153;42.696;23.218;2023-01-30T00:46:04;94731.64;;;-0.62;87.20
43553;BME280;29153;42.696;23.218;2023-01-30T00:48:42;94729.14;;;-0.66;87.19
43553;BME280;29153;42.696;23.218;2023-01-30T00:51:10;94724.64;;;-0.61;86.57
43553;BME280;29153;42.696;23.218;2023-01-30T00:53:37;94726.23;;;-0.73;86.62
43553;BME280;29153;42.696;23.218;2023-01-30T00:56:05;94723.73;;;-0.77;86.93
43553;BME280;29153;42.696;23.218;2023-01-30T00:58:33;94721.13;;;-0.77;86.75
43553;BME280;29153;42.696;23.218;2023-01-30T01:01:00;94721.41;;;-0.76;86.56
43553;BME280;29153;42.696;23.218;2023-01-30T01:03:28;94723.72;;;-0.90;87.27
43553;BME280;29153;42.696;23.218;2023-01-30T01:05:55;94725.22;;;-0.79;86.71
43553;BME280;29153;42.696;23.218;2023-01-30T01:08:23;94723.83;;;-0.75;85.79
43553;BME280;29153;42.696;23.218;2023-01-30T01:10:50;94720.80;;;-0.85;86.41
43553;BME280;29153;42.696;23.218;2023-01-30T01:13:18;94713.61;;;-0.76;86.66
43553;BME280;29153;42.696;23.218;2023-01-30T01:15:46;94713.92;;;-0.75;86.82
43553;BME280;29153;42.696;23.218;2023-01-30T01:18:13;94715.61;;;-0.72;86.95
43553;BME280;29153;42.696;23.218;2023-01-30T01:20:41;94714.72;;;-0.75;85.76
43553;BME280;29153;42.696;23.218;2023-01-30T01:23:09;94711.11;;;-0.80;85.83
43553;BME280;29153;42.696;23.218;2023-01-30T01:25:38;94709.41;;;-0.90;85.67
43553;BME280;29153;42.696;23.218;2023-01-30T01:28:06;94706.51;;;-0.92;85.83
43553;BME280;29153;42.696;23.218;2023-01-30T01:30:33;94700.72;;;-0.87;86.50
43553;BME280;29153;42.696;23.218;2023-01-30T01:33:01;94700.31;;;-0.90;86.74
43553;BME280;29153;42.696;23.218;2023-01-30T01:35:28;94696.49;;;-1.08;86.67
43553;BME280;29153;42.696;23.218;2023-01-30T01:37:56;94694.28;;;-0.98;87.07
43553;BME280;29153;42.696;23.218;2023-01-30T01:40:23;94695.38;;;-1.09;86.69
43553;BME280;29153;42.696;23.218;2023-01-30T01:43:14;94691.08;;;-1.13;86.22
43553;BME280;29153;42.696;23.218;2023-01-30T01:45:43;94687.67;;;-1.13;86.33
43553;BME280;29153;42.696;23.218;2023-01-30T01:48:24;94691.67;;;-1.17;87.16
43553;BME280;29153;42.696;23.218;2023-01-30T01:50:52;94695.69;;;-1.08;86.94
43553;BME280;29153;42.696;23.218;2023-01-30T01:53:23;94691.78;;;-1.08;86.59
43553;BME280;29153;42.696;23.218;2023-01-30T01:55:53;94698.16;;;-1.11;86.45
43553;BME280;29153;42.696;23.218;2023-01-30T01:58:44;94694.08;;;-1.09;86.48
43553;BME280;29153;42.696;23.218;2023-01-30T02:01:07;94695.19;;;-1.08;86.17
43553;BME280;29153;42.696;23.218;2023-01-30T02:03:37;94695.84;;;-1.23;86.40
43553;BME280;29153;42.696;23.218;2023-01-30T02:06:06;94690.19;;;-1.16;86.82
43553;BME280;29153;42.696;23.218;2023-01-30T02:08:37;94692.09;;;-1.07;86.64
43553;BME280;29153;42.696;23.218;2023-01-30T02:11:29;94691.47;;;-1.03;85.72
43553;BME280;29153;42.696;23.218;2023-01-30T02:13:55;94691.20;;;-1.04;85.93
43553;BME280;29153;42.696;23.218;2023-01-30T02:16:23;94692.69;;;-1.05;86.04
43553;BME280;29153;42.696;23.218;2023-01-30T02:18:51;94695.00;;;-1.00;85.71
43553;BME280;29153;42.696;23.218;2023-01-30T02:34:40;94689.28;;;-1.12;87.95
43553;BME280;29153;42.696;23.218;2023-01-30T02:40:11;94683.77;;;-1.07;87.20
43553;BME280;29153;42.696;23.218;2023-01-30T02:48:02;94678.86;;;-1.19;87.78
43553;BME280;29153;42.696;23.218;2023-01-30T02:50:33;94670.97;;;-1.15;86.91
43553;BME280;29153;42.696;23.218;2023-01-30T02:53:02;94671.77;;;-1.21;86.76
43553;BME280;29153;42.696;23.218;2023-01-30T02:55:31;94681.27;;;-1.17;87.65
43553;BME280;29153;42.696;23.218;2023-01-30T02:58:00;94680.47;;;-1.18;87.59
43553;BME280;29153;42.696;23.218;2023-01-30T03:03:33;94689.16;;;-1.15;86.59
43553;BME280;29153;42.696;23.218;2023-01-30T03:06:06;94690.55;;;-1.19;86.40
43553;BME280;29153;42.696;23.218;2023-01-30T03:08:35;94685.95;;;-1.23;86.29
43553;BME280;29153;42.696;23.218;2023-01-30T03:11:03;94689.56;;;-1.18;86.54
43553;BME280;29153;42.696;23.218;2023-01-30T03:13:54;94680.37;;;-1.20;86.63
43553;BME280;29153;42.696;23.218;2023-01-30T03:16:25;94684.36;;;-1.24;87.11
43553;BME280;29153;42.696;23.218;2023-01-30T03:18:53;94667.63;;;-1.32;87.73
43553;BME280;29153;42.696;23.218;2023-01-30T03:21:20;94671.87;;;-1.25;87.81
43553;BME280;29153;42.696;23.218;2023-01-30T03:23:48;94667.66;;;-1.26;88.02
43553;BME280;29153;42.696;23.218;2023-01-30T03:26:18;94664.35;;;-1.24;88.01
43553;BME280;29153;42.696;23.218;2023-01-30T03:28:48;94659.67;;;-1.18;88.28
43553;BME280;29153;42.696;23.218;2023-01-30T03:31:16;94648.97;;;-1.19;88.63
43553;BME280;29153;42.696;23.218;2023-01-30T03:33:43;94640.49;;;-1.17;89.02
43553;BME280;29153;42.696;23.218;2023-01-30T03:36:11;94646.99;;;-1.17;88.79
43553;BME280;29153;42.696;23.218;2023-01-30T03:38:40;94650.08;;;-1.11;88.43
43553;BME280;29153;42.696;23.218;2023-01-30T03:41:07;94643.09;;;-1.17;87.87
43553;BME280;29153;42.696;23.218;2023-01-30T03:43:35;94645.47;;;-1.15;87.73
43553;BME280;29153;42.696;23.218;2023-01-30T03:46:02;94645.91;;;-1.12;88.37
43553;BME280;29153;42.696;23.218;2023-01-30T03:48:30;94645.00;;;-1.08;87.85
43553;BME280;29153;42.696;23.218;2023-01-30T03:50:57;94643.20;;;-1.08;87.49
43553;BME280;29153;42.696;23.218;2023-01-30T03:53:25;94637.58;;;-1.11;88.24
43553;BME280;29153;42.696;23.218;2023-01-30T03:55:52;94635.69;;;-1.07;88.66
43553;BME280;29153;42.696;23.218;2023-01-30T03:58:20;94639.89;;;-1.06;88.90
43553;BME280;29153;42.696;23.218;2023-01-30T04:00:47;94638.98;;;-1.22;89.30
43553;BME280;29153;42.696;23.218;2023-01-30T04:03:15;94633.00;;;-1.16;89.29
43553;BME280;29153;42.696;23.218;2023-01-30T04:05:43;94630.28;;;-1.18;89.60
43553;BME280;29153;42.696;23.218;2023-01-30T04:08:10;94627.59;;;-1.21;89.82
43553;BME280;29153;42.696;23.218;2023-01-30T04:10:38;94631.61;;;-1.12;90.15
43553;BME280;29153;42.696;23.218;2023-01-30T04:13:05;94633.00;;;-1.16;89.16
43553;BME280;29153;42.696;23.218;2023-01-30T04:15:33;94630.00;;;-1.13;89.59
43553;BME280;29153;42.696;23.218;2023-01-30T04:18:00;94626.16;;;-1.37;89.62
43553;BME280;29153;42.696;23.218;2023-01-30T04:20:28;94629.89;;;-1.22;89.80
43553;BME280;29153;42.696;23.218;2023-01-30T04:22:55;94629.88;;;-1.15;89.78
43553;BME280;29153;42.696;23.218;2023-01-30T04:25:23;94625.91;;;-1.05;89.41
43553;BME280;29153;42.696;23.218;2023-01-30T04:27:51;94632.37;;;-1.31;90.18
43553;BME280;29153;42.696;23.218;2023-01-30T04:30:18;94628.28;;;-1.29;90.65
43553;BME280;29153;42.696;23.218;2023-01-30T04:32:46;94629.09;;;-1.29;91.03
43553;BME280;29153;42.696;23.218;2023-01-30T04:35:13;94632.08;;;-1.19;90.62
43553;BME280;29153;42.696;23.218;2023-01-30T04:37:41;94625.56;;;-1.32;90.79
43553;BME280;29153;42.696;23.218;2023-01-30T04:40:09;94625.97;;;-1.42;91.66
43553;BME280;29153;42.696;23.218;2023-01-30T04:42:37;94621.98;;;-1.31;91.48
43553;BME280;29153;42.696;23.218;2023-01-30T04:45:06;94622.57;;;-1.42;91.75
43553;BME280;29153;42.696;23.218;2023-01-30T04:47:33;94621.27;;;-1.42;91.72
43553;BME280;29153;42.696;23.218;2023-01-30T04:50:01;94621.55;;;-1.41;91.55
43553;BME280;29153;42.696;23.218;2023-01-30T04:52:28;94612.09;;;-1.38;91.87
43553;BME280;29153;42.696;23.218;2023-01-30T04:54:56;94606.16;;;-1.49;92.58
43553;BME280;29153;42.696;23.218;2023-01-30T04:57:23;94607.08;;;-1.40;92.74
43553;BME280;29153;42.696;23.218;2023-01-30T04:59:51;94602.99;;;-1.38;92.10
43553;BME280;29153;42.696;23.218;2023-01-30T05:02:18;94598.58;;;-1.44;92.61
43553;BME280;29153;42.696;23.218;2023-01-30T05:04:48;94601.30;;;-1.42;92.96
43553;BME280;29153;42.696;23.218;2023-01-30T05:07:16;94596.59;;;-1.42;93.06
43553;BME280;29153;42.696;23.218;2023-01-30T05:09:43;94598.67;;;-1.55;93.64
43553;BME280;29153;42.696;23.218;2023-01-30T05:12:11;94597.58;;;-1.43;93.76
43553;BME280;29153;42.696;23.218;2023-01-30T05:14:38;94593.28;;;-1.40;93.65
43553;BME280;29153;42.696;23.218;2023-01-30T05:17:06;94595.30;;;-1.42;93.95
43553;BME280;29153;42.696;23.218;2023-01-30T05:19:34;94592.91;;;-1.37;94.06
43553;BME280;29153;42.696;23.218;2023-01-30T05:22:02;94597.18;;;-1.40;94.13
43553;BME280;29153;42.696;23.218;2023-01-30T05:24:29;94603.60;;;-1.29;93.89
43553;BME280;29153;42.696;23.218;2023-01-30T05:26:57;94603.59;;;-1.23;93.34
43553;BME280;29153;42.696;23.218;2023-01-30T05:29:24;94604.09;;;-1.30;93.45
43553;BME280;29153;42.696;23.218;2023-01-30T05:31:52;94604.80;;;-1.25;93.03
43553;BME280;29153;42.696;23.218;2023-01-30T05:34:19;94606.78;;;-1.27;92.99
43553;BME280;29153;42.696;23.218;2023-01-30T05:36:47;94605.30;;;-1.26;93.36
43553;BME280;29153;42.696;23.218;2023-01-30T05:39:14;94610.69;;;-1.27;94.08
43553;BME280;29153;42.696;23.218;2023-01-30T05:41:42;94616.28;;;-1.24;93.79
43553;BME280;29153;42.696;23.218;2023-01-30T05:44:09;94610.80;;;-1.25;93.97
43553;BME280;29153;42.696;23.218;2023-01-30T05:46:37;94606.80;;;-1.34;94.28
43553;BME280;29153;42.696;23.218;2023-01-30T05:49:04;94612.20;;;-1.29;94.36
43553;BME280;29153;42.696;23.218;2023-01-30T05:51:33;94611.48;;;-1.27;94.63
43553;BME280;29153;42.696;23.218;2023-01-30T05:54:00;94616.89;;;-1.22;94.57
43553;BME280;29153;42.696;23.218;2023-01-30T05:56:28;94605.41;;;-1.17;94.46
43553;BME280;29153;42.696;23.218;2023-01-30T05:58:57;94612.00;;;-1.21;94.27
43553;BME280;29153;42.696;23.218;2023-01-30T06:01:26;94615.99;;;-1.18;94.01
43553;BME280;29153;42.696;23.218;2023-01-30T06:03:54;94616.61;;;-1.16;94.11
43553;BME280;29153;42.696;23.218;2023-01-30T06:06:22;94615.61;;;-1.09;93.95
43553;BME280;29153;42.696;23.218;2023-01-30T06:08:54;94617.22;;;-1.08;93.63
43553;BME280;29153;42.696;23.218;2023-01-30T06:11:23;94624.50;;;-1.14;93.45
43553;BME280;29153;42.696;23.218;2023-01-30T06:13:50;94622.30;;;-1.17;93.95
43553;BME280;29153;42.696;23.218;2023-01-30T06:16:18;94616.70;;;-1.14;94.12
43553;BME280;29153;42.696;23.218;2023-01-30T06:18:46;94610.80;;;-1.25;94.18
43553;BME280;29153;42.696;23.218;2023-01-30T06:21:14;94616.28;;;-1.24;94.40
43553;BME280;29153;42.696;23.218;2023-01-30T06:23:42;94614.48;;;-1.23;94.60
43553;BME280;29153;42.696;23.218;2023-01-30T06:26:10;94609.41;;;-1.21;94.51
43553;BME280;29153;42.696;23.218;2023-01-30T06:28:37;94610.39;;;-1.15;94.74
43553;BME280;29153;42.696;23.218;2023-01-30T06:31:06;94611.69;;;-1.15;94.77
43553;BME280;29153;42.696;23.218;2023-01-30T06:33:34;94611.09;;;-1.11;94.50
43553;BME280;29153;42.696;23.218;2023-01-30T06:36:02;94610.41;;;-1.09;94.18
43553;BME280;29153;42.696;23.218;2023-01-30T06:38:30;94610.02;;;-1.12;94.09
43553;BME280;29153;42.696;23.218;2023-01-30T06:40:57;94610.61;;;-1.17;93.54
43553;BME280;29153;42.696;23.218;2023-01-30T06:43:25;94612.50;;;-1.21;94.21
43553;BME280;29153;42.696;23.218;2023-01-30T06:45:53;94614.81;;;-1.16;94.16
43553;BME280;29153;42.696;23.218;2023-01-30T06:48:20;94613.79;;;-1.15;93.84
43553;BME280;29153;42.696;23.218;2023-01-30T06:50:48;94613.89;;;-1.19;93.92
43553;BME280;29153;42.696;23.218;2023-01-30T06:53:15;94616.98;;;-1.19;94.10
43553;BME280;29153;42.696;23.218;2023-01-30T06:55:43;94618.90;;;-1.17;94.22
43553;BME280;29153;42.696;23.218;2023-01-30T06:58:12;94623.69;;;-1.14;93.37
43553;BME280;29153;42.696;23.218;2023-01-30T07:00:41;94616.30;;;-1.17;93.09
43553;BME280;29153;42.696;23.218;2023-01-30T07:03:13;94619.69;;;-1.30;93.62
43553;BME280;29153;42.696;23.218;2023-01-30T07:05:43;94621.77;;;-1.36;93.78
43553;BME280;29153;42.696;23.218;2023-01-30T07:08:11;94624.48;;;-1.27;94.13
43553;BME280;29153;42.696;23.218;2023-01-30T07:10:40;94621.69;;;-1.19;93.54
43553;BME280;29153;42.696;23.218;2023-01-30T07:13:08;94626.09;;;-1.26;92.59
43553;BME280;29153;42.696;23.218;2023-01-30T07:15:35;94629.48;;;-1.25;92.54
43553;BME280;29153;42.696;23.218;2023-01-30T07:18:03;94636.17;;;-1.27;92.97
43553;BME280;29153;42.696;23.218;2023-01-30T07:20:31;94629.77;;;-1.31;93.28
43553;BME280;29153;42.696;23.218;2023-01-30T07:22:59;94629.37;;;-1.28;93.30
43553;BME280;29153;42.696;23.218;2023-01-30T07:25:28;94630.30;;;-1.25;93.28
43553;BME280;29153;42.696;23.218;2023-01-30T07:27:58;94622.98;;;-1.19;92.36
43553;BME280;29153;42.696;23.218;2023-01-30T07:30:27;94630.30;;;-1.25;92.38
43553;BME280;29153;42.696;23.218;2023-01-30T07:32:57;94626.48;;;-1.22;92.79
43553;BME280;29153;42.696;23.218;2023-01-30T07:35:27;94637.69;;;-1.22;92.43
43553;BME280;29153;42.696;23.218;2023-01-30T07:37:55;94639.39;;;-1.25;92.42
43553;BME280;29153;42.696;23.218;2023-01-30T07:40:24;94644.70;;;-1.16;92.49
43553;BME280;29153;42.696;23.218;2023-01-30T07:43:02;94624.88;;;-1.30;91.76
43553;BME280;29153;42.696;23.218;2023-01-30T07:45:27;94642.28;;;-1.11;92.19
43553;BME280;29153;42.696;23.218;2023-01-30T07:47:56;94643.67;;;-1.15;91.82
43553;BME280;29153;42.696;23.218;2023-01-30T07:50:23;94642.28;;;-1.11;92.05
43553;BME280;29153;42.696;23.218;2023-01-30T07:52:51;94637.71;;;-0.96;91.09
43553;BME280;29153;42.696;23.218;2023-01-30T07:55:19;94538.12;;;-1.68;90.52
43553;BME280;29153;42.696;23.218;2023-01-30T07:57:46;94639.80;;;-0.88;90.43
43553;BME280;29153;42.696;23.218;2023-01-30T08:00:14;94634.72;;;-0.86;90.56
43553;BME280;29153;42.696;23.218;2023-01-30T08:02:43;94631.91;;;-0.78;90.05
43553;BME280;29153;42.696;23.218;2023-01-30T08:05:10;94611.48;;;-0.81;90.41
43553;BME280;29153;42.696;23.218;2023-01-30T08:07:38;94612.20;;;-0.70;90.40
43553;BME280;29153;42.696;23.218;2023-01-30T08:10:06;94612.17;;;-0.63;90.36
43553;BME280;29153;42.696;23.218;2023-01-30T08:12:34;94613.56;;;-0.54;89.95
43553;BME280;29153;42.696;23.218;2023-01-30T08:15:01;94607.16;;;-0.45;89.45
43553;BME280;29153;42.696;23.218;2023-01-30T08:17:29;94615.56;;;-0.43;88.56
43553;BME280;29153;42.696;23.218;2023-01-30T08:19:56;94608.25;;;-0.50;88.06
43553;BME280;29153;42.696;23.218;2023-01-30T08:22:24;94607.54;;;-0.41;87.61
43553;BME280;29153;42.696;23.218;2023-01-30T08:24:52;94606.27;;;-0.48;87.69
43553;BME280;29153;42.696;23.218;2023-01-30T08:27:19;94605.34;;;-0.51;87.27
43553;BME280;29153;42.696;23.218;2023-01-30T08:29:47;94600.09;;;-0.60;86.40
43553;BME280;29153;42.696;23.218;2023-01-30T08:32:14;94597.95;;;-0.54;85.80
43553;BME280;29153;42.696;23.218;2023-01-30T08:34:42;94595.02;;;-0.42;86.41
43553;BME280;29153;42.696;23.218;2023-01-30T08:37:09;94588.72;;;-0.37;86.99
43553;BME280;29153;42.696;23.218;2023-01-30T08:39:37;94594.45;;;-0.44;84.90
43553;BME280;29153;42.696;23.218;2023-01-30T08:42:04;94591.20;;;-0.33;84.21
43553;BME280;29153;42.696;23.218;2023-01-30T08:44:32;94523.50;;;-0.77;84.62
43553;BME280;29153;42.696;23.218;2023-01-30T08:47:00;94586.38;;;-0.29;85.39
43553;BME280;29153;42.696;23.218;2023-01-30T08:49:27;94588.59;;;-0.26;86.26
43553;BME280;29153;42.696;23.218;2023-01-30T08:51:55;94592.27;;;-0.18;86.62
43553;BME280;29153;42.696;23.218;2023-01-30T08:54:22;94586.57;;;-0.18;85.86
43553;BME280;29153;42.696;23.218;2023-01-30T08:56:50;94584.00;;;-0.02;85.57
43553;BME280;29153;42.696;23.218;2023-01-30T08:59:17;94584.53;;;-0.09;84.31
43553;BME280;29153;42.696;23.218;2023-01-30T09:01:45;94585.15;;;-0.14;83.91
43553;BME280;29153;42.696;23.218;2023-01-30T09:04:12;94570.05;;;0.02;84.28
43553;BME280;29153;42.696;23.218;2023-01-30T09:06:40;94569.30;;;-0.12;83.72
43553;BME280;29153;42.696;23.218;2023-01-30T09:09:08;94574.70;;;-0.07;82.80
43553;BME280;29153;42.696;23.218;2023-01-30T09:11:35;94574.73;;;-0.14;82.79
43553;BME280;29153;42.696;23.218;2023-01-30T09:14:03;94575.58;;;-0.04;82.79
43553;BME280;29153;42.696;23.218;2023-01-30T09:16:30;94575.58;;;-0.04;82.87
43553;BME280;29153;42.696;23.218;2023-01-30T09:18:58;94573.44;;;-0.14;83.66
43553;BME280;29153;42.696;23.218;2023-01-30T09:21:25;94567.20;;;-0.13;84.36
43553;BME280;29153;42.696;23.218;2023-01-30T09:23:55;94569.61;;;-0.11;85.01
43553;BME280;29153;42.696;23.218;2023-01-30T09:26:22;94570.23;;;-0.16;85.12
43553;BME280;29153;42.696;23.218;2023-01-30T09:28:49;94562.46;;;-0.29;86.02
43553;BME280;29153;42.696;23.218;2023-01-30T09:31:17;94562.34;;;-0.25;86.45
43553;BME280;29153;42.696;23.218;2023-01-30T09:33:45;94566.98;;;-0.27;86.69
43553;BME280;29153;42.696;23.218;2023-01-30T09:36:14;94567.86;;;-0.24;86.40
43553;BME280;29153;42.696;23.218;2023-01-30T09:38:41;94571.49;;;-0.31;86.60
43553;BME280;29153;42.696;23.218;2023-01-30T09:41:25;94566.17;;;-0.27;86.55
43553;BME280;29153;42.696;23.218;2023-01-30T09:44:13;94562.18;;;-0.08;86.52
43553;BME280;29153;42.696;23.218;2023-01-30T09:52:33;94512.99;;;-0.51;86.62
43553;BME280;29153;42.696;23.218;2023-01-30T09:55:13;94550.25;;;-0.28;86.77
43553;BME280;29153;42.696;23.218;2023-01-30T09:57:29;94545.70;;;-0.39;87.14
43553;BME280;29153;42.696;23.218;2023-01-30T10:00:20;94537.73;;;-0.29;86.67
43553;BME280;29153;42.696;23.218;2023-01-30T10:03:01;94542.31;;;-0.18;86.05
43553;BME280;29153;42.696;23.218;2023-01-30T10:05:39;94539.73;;;-0.24;86.48
43553;BME280;29153;42.696;23.218;2023-01-30T10:10:41;94532.22;;;-0.23;85.82
43553;BME280;29153;42.696;23.218;2023-01-30T10:13:27;94523.80;;;-0.25;85.56
43553;BME280;29153;42.696;23.218;2023-01-30T10:16:03;94519.59;;;-0.20;85.50
43553;BME280;29153;42.696;23.218;2023-01-30T10:24:22;94499.87;;;-0.69;84.95
43553;BME280;29153;42.696;23.218;2023-01-30T10:26:48;94500.94;;;-0.61;84.53
43553;BME280;29153;42.696;23.218;2023-01-30T10:29:32;94501.05;;;-0.65;84.34
43553;BME280;29153;42.696;23.218;2023-01-30T10:32:00;94493.86;;;-0.70;84.62
43553;BME280;29153;42.696;23.218;2023-01-30T10:34:35;94491.03;;;-0.62;84.79
43553;BME280;29153;42.696;23.218;2023-01-30T10:37:08;94487.78;;;-0.73;84.74
43553;BME280;29153;42.696;23.218;2023-01-30T10:42:46;94476.36;;;-0.43;84.51
43553;BME280;29153;42.696;23.218;2023-01-30T10:45:15;94468.56;;;-0.43;84.33
43553;BME280;29153;42.696;23.218;2023-01-30T10:48:01;94460.52;;;-0.35;84.27
43553;BME280;29153;42.696;23.218;2023-01-30T10:53:38;94445.41;;;-0.35;83.85
43553;BME280;29153;42.696;23.218;2023-01-30T10:58:52;94434.89;;;0.00;83.49
43553;BME280;29153;42.696;23.218;2023-01-30T11:01:24;94432.69;;;-0.03;81.79
43553;BME280;29153;42.696;23.218;2023-01-30T11:03:55;94424.80;;;-0.06;82.77
43553;BME280;29153;42.696;23.218;2023-01-30T11:06:25;94426.83;;;0.17;81.81
43553;BME280;29153;42.696;23.218;2023-01-30T11:08:54;94418.25;;;0.26;81.87
43553;BME280;29153;42.696;23.218;2023-01-30T11:11:32;94417.21;;;0.33;81.72
43553;BME280;29153;42.696;23.218;2023-01-30T11:14:06;94408.09;;;0.33;81.08
43553;BME280;29153;42.696;23.218;2023-01-30T11:19:33;94396.83;;;0.49;81.42
43553;BME280;29153;42.696;23.218;2023-01-30T11:22:04;94394.04;;;0.59;80.39
43553;BME280;29153;42.696;23.218;2023-01-30T11:24:40;94386.92;;;0.57;80.63
43553;BME280;29153;42.696;23.218;2023-01-30T11:27:27;94380.03;;;0.44;80.78
43553;BME280;29153;42.696;23.218;2023-01-30T11:30:08;94383.61;;;0.59;78.96
43553;BME280;29153;42.696;23.218;2023-01-30T11:32:30;94370.70;;;0.46;80.16
43553;BME280;29153;42.696;23.218;2023-01-30T11:37:39;94366.08;;;0.57;79.39
43553;BME280;29153;42.696;23.218;2023-01-30T11:43:03;94361.17;;;0.67;79.12
43553;BME280;29153;42.696;23.218;2023-01-30T11:45:41;94307.73;;;0.49;78.83
43553;BME280;29153;42.696;23.218;2023-01-30T11:48:19;94344.94;;;0.65;78.19
43553;BME280;29153;42.696;23.218;2023-01-30T11:50:53;94337.42;;;0.66;78.02
43553;BME280;29153;42.696;23.218;2023-01-30T11:55:56;94328.52;;;0.47;78.08
43553;BME280;29153;42.696;23.218;2023-01-30T11:58:28;94317.65;;;0.50;78.87
43553;BME280;29153;42.696;23.218;2023-01-30T12:00:56;94317.45;;;0.51;78.99
43553;BME280;29153;42.696;23.218;2023-01-30T12:03:25;94313.96;;;0.66;78.76
43553;BME280;29153;42.696;23.218;2023-01-30T12:05:56;94310.55;;;0.66;78.52
43553;BME280;29153;42.696;23.218;2023-01-30T12:08:26;94306.44;;;0.67;78.79
43553;BME280;29153;42.696;23.218;2023-01-30T12:10:56;94301.44;;;0.66;77.43
43553;BME280;29153;42.696;23.218;2023-01-30T12:13:37;94299.56;;;0.64;76.02
43553;BME280;29153;42.696;23.218;2023-01-30T12:18:55;94297.61;;;0.68;75.54
43553;BME280;29153;42.696;23.218;2023-01-30T12:21:27;94300.47;;;0.97;73.85
43553;BME280;29153;42.696;23.218;2023-01-30T12:24:33;94287.09;;;0.84;73.27
43553;BME280;29153;42.696;23.218;2023-01-30T12:27:27;94283.24;;;0.77;72.61
43553;BME280;29153;42.696;23.218;2023-01-30T12:29:58;94282.83;;;0.53;73.02
43553;BME280;29153;42.696;23.218;2023-01-30T12:32:27;94271.45;;;0.84;72.87
43553;BME280;29153;42.696;23.218;2023-01-30T12:34:55;94267.49;;;0.72;72.04
43553;BME280;29153;42.696;23.218;2023-01-30T12:43:07;94259.39;;;1.01;72.48
43553;BME280;29153;42.696;23.218;2023-01-30T12:45:38;94262.13;;;1.15;72.65
43553;BME280;29153;42.696;23.218;2023-01-30T12:51:12;94251.30;;;1.21;71.41
43553;BME280;29153;42.696;23.218;2023-01-30T12:56:32;94248.55;;;1.16;71.92
43553;BME280;29153;42.696;23.218;2023-01-30T12:59:21;94238.43;;;1.08;71.33
43553;BME280;29153;42.696;23.218;2023-01-30T13:01:58;94233.03;;;1.21;71.60
43553;BME280;29153;42.696;23.218;2023-01-30T13:07:39;94236.53;;;0.94;71.93
43553;BME280;29153;42.696;23.218;2023-01-30T13:15:48;94239.87;;;1.13;71.35
43553;BME280;29153;42.696;23.218;2023-01-30T13:21:30;94236.00;;;0.95;71.03
43553;BME280;29153;42.696;23.218;2023-01-30T13:26:48;94223.37;;;1.10;76.05
43553;BME280;29153;42.696;23.218;2023-01-30T13:31:58;94217.24;;;0.95;72.79
43553;BME280;29153;42.696;23.218;2023-01-30T13:34:41;94211.71;;;1.03;73.69
43553;BME280;29153;42.696;23.218;2023-01-30T13:37:15;94196.17;;;0.97;76.40
43553;BME280;29153;42.696;23.218;2023-01-30T13:45:09;94189.54;;;0.82;77.46
43553;BME280;29153;42.696;23.218;2023-01-30T13:48:07;94187.73;;;0.83;78.28
43553;BME280;29153;42.696;23.218;2023-01-30T13:50:54;94185.92;;;0.83;78.12
43553;BME280;29153;42.696;23.218;2023-01-30T13:53:25;94186.69;;;0.72;77.94
43553;BME280;29153;42.696;23.218;2023-01-30T13:56:04;94183.10;;;0.55;79.09
43553;BME280;29153;42.696;23.218;2023-01-30T14:01:17;94182.38;;;0.39;79.50
43553;BME280;29153;42.696;23.218;2023-01-30T14:03:46;94107.35;;;-0.01;80.15
43553;BME280;29153;42.696;23.218;2023-01-30T14:08:53;94179.41;;;0.54;79.32
43553;BME280;29153;42.696;23.218;2023-01-30T14:11:29;94180.11;;;0.52;79.30
43553;BME280;29153;42.696;23.218;2023-01-30T14:14:02;94178.97;;;0.48;79.38
43553;BME280;29153;42.696;23.218;2023-01-30T14:16:44;94178.06;;;0.33;79.49
43553;BME280;29153;42.696;23.218;2023-01-30T14:19:34;94187.89;;;0.22;80.41
43553;BME280;29153;42.696;23.218;2023-01-30T14:30:45;94194.98;;;0.06;80.04
43553;BME280;29153;42.696;23.218;2023-01-30T14:38:30;94181.90;;;-0.06;81.63
43553;BME280;29153;42.696;23.218;2023-01-30T14:48:55;94168.44;;;-0.12;82.53
43553;BME280;29153;42.696;23.218;2023-01-30T14:51:41;94157.52;;;-0.21;82.71
43553;BME280;29153;42.696;23.218;2023-01-30T14:56:49;94152.59;;;-0.29;82.83
43553;BME280;29153;42.696;23.218;2023-01-30T14:59:38;94153.02;;;-0.41;83.07
43553;BME280;29153;42.696;23.218;2023-01-30T15:07:52;94143.61;;;-0.42;83.04
43553;BME280;29153;42.696;23.218;2023-01-30T15:10:46;94150.99;;;-0.48;82.95
43553;BME280;29153;42.696;23.218;2023-01-30T15:13:19;94151.11;;;-0.61;82.60
43553;BME280;29153;42.696;23.218;2023-01-30T15:24:03;94153.92;;;-0.87;83.36
43553;BME280;29153;42.696;23.218;2023-01-30T15:32:32;94156.98;;;-1.22;84.22
43553;BME280;29153;42.696;23.218;2023-01-30T15:35:15;94165.59;;;-1.28;84.50